createdAt,value
2018-01-25T00:01:16.837Z,12.13
2018-01-25T00:03:42.776Z,12.20
2018-01-25T00:06:08.756Z,13.20
2018-01-25T00:08:34.743Z,13.47
2018-01-25T00:11:00.716Z,14.13
2018-01-25T00:13:26.652Z,12.93
2018-01-25T00:15:52.608Z,12.40
2018-01-25T00:18:18.581Z,15.23
2018-01-25T00:20:44.562Z,12.33
2018-01-25T00:23:10.499Z,13.83
2018-01-25T00:25:36.483Z,12.80
2018-01-25T00:28:02.420Z,15.10
2018-01-25T00:30:28.353Z,13.13
2018-01-25T00:32:54.347Z,13.43
2018-01-25T00:35:20.288Z,15.27
2018-01-25T00:37:46.223Z,13.33
2018-01-25T00:40:12.195Z,13.03
2018-01-25T00:42:38.159Z,14.13
2018-01-25T00:45:04.923Z,13.70
2018-01-25T00:47:30.864Z,13.37
2018-01-25T00:49:56.831Z,14.27
2018-01-25T00:52:22.819Z,14.20
2018-01-25T00:54:49.499Z,15.77
2018-01-25T00:57:15.467Z,14.50
2018-01-25T00:59:41.436Z,16.37
2018-01-25T01:02:07.403Z,12.80
2018-01-25T01:04:33.371Z,15.50
2018-01-25T01:06:59.307Z,12.00
2018-01-25T01:09:25.279Z,13.17
2018-01-25T01:11:51.955Z,13.60
2018-01-25T01:14:17.888Z,13.87
2018-01-25T01:16:43.852Z,14.13
2018-01-25T01:19:09.784Z,14.00
2018-01-25T01:21:35.788Z,15.60
2018-01-25T01:24:01.724Z,14.50
2018-01-25T01:26:27.656Z,15.20
2018-01-25T01:28:54.391Z,15.90
2018-01-25T01:31:20.332Z,16.60
2018-01-25T01:33:47.065Z,17.17
2018-01-25T01:36:13.007Z,19.20
2018-01-25T01:38:38.972Z,17.77
2018-01-25T01:41:04.984Z,14.93
2018-01-25T01:43:30.911Z,17.27
2018-01-25T01:45:56.879Z,16.60
2018-01-25T01:48:22.824Z,17.90
2018-01-25T01:50:48.791Z,18.77
2018-01-25T01:53:14.727Z,16.13
2018-01-25T01:55:40.692Z,19.03
2018-01-25T01:58:06.639Z,16.97
2018-01-25T02:00:33.387Z,17.47
2018-01-25T02:03:00.065Z,18.90
2018-01-25T02:05:26.036Z,18.20
2018-01-25T02:07:52.011Z,20.30
2018-01-25T02:10:18.691Z,19.07
2018-01-25T02:12:44.664Z,17.20
2018-01-25T02:15:10.596Z,20.50
2018-01-25T02:17:36.570Z,20.80
2018-01-25T02:20:03.268Z,16.93
2018-01-25T02:22:29.220Z,17.03
2018-01-25T02:24:55.195Z,16.50
2018-01-25T02:27:21.887Z,16.83
2018-01-25T02:29:47.864Z,15.83
2018-01-25T02:32:13.807Z,17.67
2018-01-25T02:34:39.753Z,18.33
2018-01-25T02:37:06.501Z,16.30
2018-01-25T02:39:32.481Z,17.10
2018-01-25T02:41:58.508Z,16.07
2018-01-25T02:44:24.452Z,14.80
2018-01-25T02:46:50.396Z,16.63
2018-01-25T02:49:16.381Z,15.70
2018-01-25T02:51:43.077Z,16.73
2018-01-25T02:54:09.040Z,17.47
2018-01-25T02:56:35.041Z,18.90
2018-01-25T02:59:01.036Z,13.10
2018-01-25T03:01:27.016Z,18.73
2018-01-25T03:03:53.009Z,15.00
2018-01-25T03:06:18.965Z,17.00
2018-01-25T03:08:45.701Z,15.63
2018-01-25T03:11:12.426Z,14.70
2018-01-25T03:13:38.433Z,16.87
2018-01-25T03:16:04.378Z,14.23
2018-01-25T03:18:30.501Z,18.67
2018-01-25T03:20:56.436Z,16.90
2018-01-25T03:23:22.396Z,19.33
2018-01-25T03:25:48.365Z,15.23
2018-01-25T03:28:14.304Z,17.97
2018-01-25T03:30:40.260Z,15.40
2018-01-25T03:33:06.195Z,16.73
2018-01-25T03:35:32.185Z,18.10
2018-01-25T03:37:58.140Z,15.20
2018-01-25T03:40:24.861Z,15.93
2018-01-25T03:42:50.841Z,16.27
2018-01-25T03:45:24.516Z,15.37
2018-01-25T03:47:50.492Z,15.03
2018-01-25T03:50:17.202Z,16.87
2018-01-25T03:52:43.164Z,14.37
2018-01-25T03:55:09.096Z,14.93
2018-01-25T03:57:35.061Z,15.77
2018-01-25T04:00:01.806Z,15.33
2018-01-25T04:02:28.480Z,14.63
2018-01-25T04:04:54.444Z,15.17
2018-01-25T04:07:20.377Z,11.97
2018-01-25T04:09:46.387Z,16.00
2018-01-25T04:12:12.325Z,13.80
2018-01-25T04:14:38.459Z,14.10
2018-01-25T04:17:04.396Z,15.80
2018-01-25T04:19:30.392Z,17.40
2018-01-25T04:21:56.369Z,15.60
2018-01-25T04:24:22.341Z,15.40
2018-01-25T04:26:48.313Z,15.50
2018-01-25T04:29:15.021Z,13.10
2018-01-25T04:31:40.992Z,15.30
2018-01-25T04:34:08.419Z,16.33
2018-01-25T04:36:34.361Z,14.67
2018-01-25T04:39:00.365Z,14.93
2018-01-25T04:41:26.305Z,16.97
2018-01-25T04:43:52.306Z,17.23
2018-01-25T04:46:18.989Z,13.20
2018-01-25T04:48:44.956Z,14.70
2018-01-25T04:51:10.893Z,17.30
2018-01-25T04:53:36.897Z,12.63
2018-01-25T04:56:02.861Z,13.33
2018-01-25T04:58:28.813Z,14.73
2018-01-25T05:00:54.794Z,14.53
2018-01-25T05:03:21.477Z,14.37
2018-01-25T05:05:47.449Z,16.23
2018-01-25T05:08:13.424Z,12.33
2018-01-25T05:10:39.369Z,13.30
2018-01-25T05:13:05.389Z,13.83
2018-01-25T05:15:32.108Z,14.17
2018-01-25T05:17:58.080Z,12.60
2018-01-25T05:20:24.056Z,18.90
2018-01-25T05:22:50.134Z,17.83
2018-01-25T05:25:16.848Z,13.80
2018-01-25T05:27:42.824Z,16.30
2018-01-25T05:30:09.509Z,15.33
2018-01-25T05:32:35.496Z,14.50
2018-01-25T05:35:01.458Z,16.50
2018-01-25T05:37:28.208Z,15.63
2018-01-25T05:39:54.916Z,15.10
2018-01-25T05:42:20.898Z,16.63
2018-01-25T05:44:47.606Z,14.17
2018-01-25T05:47:13.536Z,16.23
2018-01-25T05:49:39.508Z,17.80
2018-01-25T05:52:05.442Z,16.43
2018-01-25T05:54:31.517Z,17.80
2018-01-25T05:56:57.457Z,17.80
2018-01-25T05:59:23.429Z,16.07
2018-01-25T06:01:49.376Z,15.63
2018-01-25T06:04:15.357Z,19.23
2018-01-25T06:06:41.323Z,16.60
2018-01-25T06:09:07.380Z,17.27
2018-01-25T06:11:33.347Z,15.40
2018-01-25T06:14:00.065Z,17.53
2018-01-25T06:16:26.045Z,18.37
2018-01-25T06:18:52.021Z,15.00
2018-01-25T06:21:17.957Z,15.00
2018-01-25T06:23:43.897Z,20.17
2018-01-25T06:26:09.888Z,16.33
2018-01-25T06:28:35.829Z,18.70
2018-01-25T06:31:01.786Z,16.47
2018-01-25T06:33:27.766Z,22.97
2018-01-25T06:35:54.440Z,28.90
2018-01-25T06:38:20.411Z,28.10
2018-01-25T06:40:46.412Z,36.47
2018-01-25T06:43:12.348Z,30.60
2018-01-25T06:45:38.331Z,25.63
2018-01-25T06:48:04.297Z,31.70
2018-01-25T06:50:31.033Z,28.53
2018-01-25T06:52:57.025Z,24.47
2018-01-25T06:55:22.977Z,21.50
2018-01-25T06:57:48.948Z,18.07
2018-01-25T07:00:14.925Z,21.53
2018-01-25T07:02:40.860Z,17.63
2018-01-25T07:05:06.837Z,18.00
2018-01-25T07:07:32.798Z,16.40
2018-01-25T07:09:59.508Z,13.97
2018-01-25T07:12:25.473Z,18.20
2018-01-25T07:14:51.460Z,23.03
2018-01-25T07:17:17.412Z,15.97
2018-01-25T07:19:43.389Z,25.27
2018-01-25T07:22:10.091Z,17.90
2018-01-25T07:24:36.072Z,18.23
2018-01-25T07:27:02.026Z,17.13
2018-01-25T07:29:28.761Z,20.23
2018-01-25T07:31:54.744Z,16.47
2018-01-25T07:34:20.728Z,22.67
2018-01-25T07:36:46.741Z,15.90
2018-01-25T07:39:12.685Z,16.67
2018-01-25T07:41:38.644Z,17.07
2018-01-25T07:44:04.625Z,16.77
2018-01-25T07:46:30.610Z,17.83
2018-01-25T07:48:56.593Z,19.83
2018-01-25T07:51:22.540Z,18.30
2018-01-25T07:53:48.542Z,18.97
2018-01-25T07:56:15.232Z,19.80
2018-01-25T07:58:41.184Z,16.60
2018-01-25T08:01:07.188Z,19.70
2018-01-25T08:03:33.214Z,17.47
2018-01-25T08:05:59.169Z,16.23
2018-01-25T08:08:25.856Z,15.77
2018-01-25T08:10:51.892Z,20.80
2018-01-25T08:13:24.133Z,15.20
2018-01-25T08:15:50.125Z,20.53
2018-01-25T08:18:16.133Z,17.40
2018-01-25T08:20:42.086Z,17.87
2018-01-25T08:23:08.106Z,16.10
2018-01-25T08:25:34.073Z,18.80
2018-01-25T08:28:00.069Z,16.43
2018-01-25T08:30:26.021Z,16.73
2018-01-25T08:32:52.737Z,19.53
2018-01-25T08:35:18.737Z,23.10
2018-01-25T08:37:44.713Z,16.30
2018-01-25T08:40:10.663Z,20.47
2018-01-25T08:42:36.629Z,18.53
2018-01-25T08:45:02.624Z,17.13
2018-01-25T08:47:28.605Z,17.57
2018-01-25T08:49:54.586Z,21.90
2018-01-25T08:52:20.520Z,17.77
2018-01-25T08:54:46.501Z,17.87
2018-01-25T08:57:12.458Z,17.17
2018-01-25T08:59:38.447Z,16.27
2018-01-25T09:02:04.584Z,22.00
2018-01-25T09:04:30.537Z,18.50
2018-01-25T09:06:56.526Z,15.67
2018-01-25T09:09:23.212Z,20.00
2018-01-25T09:11:49.185Z,30.17
2018-01-25T09:14:15.168Z,16.10
2018-01-25T09:16:41.133Z,15.80
2018-01-25T09:19:07.130Z,18.10
2018-01-25T09:21:33.104Z,19.13
2018-01-25T09:23:59.100Z,18.50
2018-01-25T09:26:25.036Z,19.60
2018-01-25T09:28:57.892Z,18.63
2018-01-25T09:31:23.836Z,18.87
2018-01-25T09:33:49.826Z,17.63
2018-01-25T09:36:15.808Z,16.30
2018-01-25T09:38:41.757Z,20.13
2018-01-25T09:41:08.473Z,17.77
2018-01-25T09:43:34.432Z,19.40
2018-01-25T09:46:00.404Z,16.30
2018-01-25T09:48:26.360Z,20.10
2018-01-25T09:50:52.335Z,17.57
2018-01-25T09:53:18.302Z,14.10
2018-01-25T09:55:44.245Z,16.27
2018-01-25T09:58:10.221Z,16.73
2018-01-25T10:00:36.319Z,19.43
2018-01-25T10:03:02.161Z,16.97
2018-01-25T10:05:28.110Z,17.07
2018-01-25T10:07:54.088Z,19.70
2018-01-25T10:10:20.088Z,17.10
2018-01-25T10:12:46.017Z,17.03
2018-01-25T10:15:11.989Z,20.57
2018-01-25T10:17:38.703Z,19.13
2018-01-25T10:20:04.665Z,16.37
2018-01-25T10:22:30.615Z,18.70
2018-01-25T10:24:56.593Z,14.80
2018-01-25T10:27:22.553Z,15.37
2018-01-25T10:29:48.576Z,20.37
2018-01-25T10:32:14.556Z,21.10
2018-01-25T10:34:40.536Z,24.60
2018-01-25T10:37:06.520Z,16.17
2018-01-25T10:39:32.492Z,20.37
2018-01-25T10:41:59.212Z,23.93
2018-01-25T10:44:25.189Z,18.90
2018-01-25T10:46:51.211Z,19.63
2018-01-25T10:49:17.905Z,17.57
2018-01-25T10:51:43.857Z,19.30
2018-01-25T10:54:09.833Z,17.33
2018-01-25T10:56:36.536Z,18.63
2018-01-25T10:59:02.512Z,21.57
2018-01-25T11:01:34.765Z,16.90
2018-01-25T11:04:00.708Z,15.97
2018-01-25T11:06:26.729Z,24.07
2018-01-25T11:08:52.681Z,19.40
2018-01-25T11:11:18.654Z,20.00
2018-01-25T11:13:45.345Z,22.67
2018-01-25T11:16:11.330Z,21.57
2018-01-25T11:18:37.340Z,22.90
2018-01-25T11:21:03.312Z,19.70
2018-01-25T11:23:29.997Z,19.17
2018-01-25T11:25:55.976Z,23.47
2018-01-25T11:28:21.933Z,21.48
2018-01-25T11:30:48.677Z,20.67
2018-01-25T11:33:14.627Z,17.63
2018-01-25T11:35:41.321Z,17.00
2018-01-25T11:38:07.360Z,18.33
2018-01-25T11:40:33.326Z,13.97
2018-01-25T11:43:00.062Z,13.93
2018-01-25T11:45:26.065Z,22.50
2018-01-25T11:47:52.050Z,16.77
2018-01-25T11:50:18.008Z,17.73
2018-01-25T11:52:44.761Z,17.13
2018-01-25T11:55:11.504Z,15.37
2018-01-25T11:57:37.477Z,17.57
2018-01-25T12:00:03.454Z,15.53
2018-01-25T12:02:29.434Z,18.93
2018-01-25T12:04:56.174Z,16.53
2018-01-25T12:07:22.152Z,19.10
2018-01-25T12:09:48.117Z,17.53
2018-01-25T12:12:14.109Z,16.50
2018-01-25T12:14:40.073Z,18.00
2018-01-25T12:17:06.040Z,18.77
2018-01-25T12:19:32.788Z,16.17
2018-01-25T12:21:58.750Z,17.97
2018-01-25T12:24:25.488Z,18.30
2018-01-25T12:26:51.637Z,16.90
2018-01-25T12:29:18.399Z,15.27
2018-01-25T12:31:45.100Z,15.17
2018-01-25T12:34:11.081Z,19.43
2018-01-25T12:36:37.773Z,19.07
2018-01-25T12:39:03.797Z,17.83
2018-01-25T12:41:29.765Z,16.07
2018-01-25T12:43:55.772Z,17.57
2018-01-25T12:46:21.725Z,15.23
2018-01-25T12:48:47.708Z,18.97
2018-01-25T12:51:13.692Z,17.77
2018-01-25T12:53:39.672Z,14.13
2018-01-25T12:56:05.674Z,18.40
2018-01-25T12:58:31.684Z,17.53
2018-01-25T13:00:57.641Z,14.73
2018-01-25T13:03:23.584Z,16.77
2018-01-25T13:05:49.588Z,14.57
2018-01-25T13:08:15.581Z,17.10
2018-01-25T13:10:41.530Z,15.93
2018-01-25T13:13:08.241Z,18.93
2018-01-25T13:15:34.315Z,16.50
2018-01-25T13:18:00.294Z,19.10
2018-01-25T13:20:26.250Z,14.70
2018-01-25T13:22:52.290Z,15.83
2018-01-25T13:25:18.241Z,16.30
2018-01-25T13:27:44.531Z,15.77
2018-01-25T13:30:10.531Z,19.60
2018-01-25T13:32:36.493Z,15.30
2018-01-25T13:35:03.205Z,15.90
2018-01-25T13:37:29.186Z,19.07
2018-01-25T13:39:55.871Z,16.13
2018-01-25T13:42:21.852Z,16.87
2018-01-25T13:44:47.806Z,17.37
2018-01-25T13:47:14.521Z,16.80
2018-01-25T13:49:40.480Z,16.53
2018-01-25T13:52:06.498Z,16.57
2018-01-25T13:54:32.508Z,18.13
2018-01-25T13:56:58.489Z,17.27
2018-01-25T13:59:24.461Z,18.67
2018-01-25T14:01:50.433Z,22.17
2018-01-25T14:04:16.404Z,20.17
2018-01-25T14:06:43.109Z,20.30
2018-01-25T14:09:09.101Z,20.00
2018-01-25T14:11:35.869Z,17.63
2018-01-25T14:14:01.834Z,16.77
2018-01-25T14:16:27.818Z,20.07
2018-01-25T14:18:54.512Z,15.80
2018-01-25T14:21:20.477Z,17.40
2018-01-25T14:23:46.456Z,17.60
2018-01-25T14:26:13.149Z,16.53
2018-01-25T14:28:39.133Z,24.20
2018-01-25T14:31:05.880Z,22.70
2018-01-25T14:33:32.596Z,16.73
2018-01-25T14:35:58.602Z,20.90
2018-01-25T14:38:24.565Z,18.67
2018-01-25T14:40:50.540Z,18.93
2018-01-25T14:43:16.512Z,21.37
2018-01-25T14:45:42.467Z,19.03
2018-01-25T14:48:08.453Z,18.80
2018-01-25T14:50:41.998Z,19.67
2018-01-25T14:53:07.949Z,24.53
2018-01-25T14:55:33.971Z,20.10
2018-01-25T14:58:00.673Z,16.23
2018-01-25T15:00:26.698Z,19.30
2018-01-25T15:02:52.641Z,21.80
2018-01-25T15:05:18.633Z,17.17
2018-01-25T15:07:44.621Z,19.87
2018-01-25T15:10:10.561Z,20.03
2018-01-25T15:12:36.564Z,25.00
2018-01-25T15:15:02.544Z,19.33
2018-01-25T15:17:28.573Z,15.57
2018-01-25T15:20:01.805Z,17.87
2018-01-25T15:22:27.810Z,17.90
2018-01-25T15:25:00.034Z,18.90
2018-01-25T15:27:33.740Z,19.00
2018-01-25T15:29:59.701Z,16.20
2018-01-25T15:32:25.681Z,15.60
2018-01-25T15:34:51.652Z,15.67
2018-01-25T15:37:17.590Z,18.97
2018-01-25T15:39:43.557Z,17.67
2018-01-25T15:42:09.493Z,21.17
2018-01-25T15:44:35.589Z,17.47
2018-01-25T15:47:08.553Z,17.63
2018-01-25T15:49:34.560Z,17.87
2018-01-25T15:52:00.501Z,17.10
2018-01-25T15:54:26.452Z,16.33
2018-01-25T15:56:52.460Z,22.13
2018-01-25T15:59:18.436Z,21.50
2018-01-25T16:01:44.440Z,20.60
2018-01-25T16:04:10.384Z,17.93
2018-01-25T16:06:36.391Z,17.83
2018-01-25T16:09:02.344Z,20.20
2018-01-25T16:11:28.296Z,24.33
2018-01-25T16:13:54.268Z,16.70
2018-01-25T16:16:20.957Z,17.60
2018-01-25T16:18:46.936Z,19.67
2018-01-25T16:21:12.935Z,18.40
2018-01-25T16:23:38.920Z,21.30
2018-01-25T16:26:04.912Z,21.27
2018-01-25T16:28:30.867Z,18.80
2018-01-25T16:30:56.861Z,22.27
2018-01-25T16:33:22.829Z,19.27
2018-01-25T16:35:48.833Z,18.47
2018-01-25T16:38:14.793Z,18.53
2018-01-25T16:40:40.785Z,20.87
2018-01-25T16:43:07.465Z,23.13
2018-01-25T16:45:33.451Z,20.53
2018-01-25T16:47:59.436Z,24.33
2018-01-25T16:50:25.388Z,21.10
2018-01-25T16:52:51.337Z,20.47
2018-01-25T16:55:17.349Z,22.13
2018-01-25T16:57:43.293Z,22.67
2018-01-25T17:00:09.267Z,21.13
2018-01-25T17:02:35.328Z,21.00
2018-01-25T17:05:01.330Z,24.03
2018-01-25T17:07:27.305Z,22.67
2018-01-25T17:09:53.993Z,22.17
2018-01-25T17:12:20.035Z,19.40
2018-01-25T17:14:45.973Z,29.60
2018-01-25T17:17:11.952Z,20.63
2018-01-25T17:19:37.965Z,26.97
2018-01-25T17:22:03.932Z,20.00
2018-01-25T17:24:30.645Z,22.50
2018-01-25T17:26:56.658Z,23.80
2018-01-25T17:29:22.602Z,24.50
2018-01-25T17:31:48.577Z,25.10
2018-01-25T17:34:14.557Z,26.37
2018-01-25T17:36:40.532Z,25.60
2018-01-25T17:39:06.622Z,28.50
2018-01-25T17:41:32.631Z,30.13
2018-01-25T17:43:59.371Z,24.53
2018-01-25T17:46:25.404Z,30.30
2018-01-25T17:48:51.403Z,31.83
2018-01-25T17:51:17.349Z,29.43
2018-01-25T17:53:43.325Z,26.37
2018-01-25T17:56:09.284Z,29.43
2018-01-25T17:58:36.087Z,25.80
2018-01-25T18:01:02.184Z,30.30
2018-01-25T18:03:28.160Z,30.53
2018-01-25T18:05:54.108Z,35.33
2018-01-25T18:11:10.856Z,27.73
2018-01-25T18:13:36.905Z,29.27
2018-01-25T18:16:02.887Z,34.73
2018-01-25T18:18:28.892Z,34.33
2018-01-25T18:20:55.636Z,29.90
2018-01-25T18:23:21.575Z,30.70
2018-01-25T18:25:47.543Z,30.67
2018-01-25T18:28:13.789Z,33.13
2018-01-25T18:30:39.823Z,28.67
2018-01-25T18:33:06.004Z,26.37
2018-01-25T18:35:32.067Z,31.10
2018-01-25T18:37:58.008Z,33.90
2018-01-25T18:40:24.858Z,31.60
2018-01-25T18:42:51.704Z,35.50
2018-01-25T18:45:17.725Z,29.80
2018-01-25T18:47:43.752Z,30.03
2018-01-25T18:50:09.731Z,31.50
2018-01-25T18:52:35.735Z,32.03
2018-01-25T18:55:01.773Z,34.83
2018-01-25T18:57:27.767Z,30.57
2018-01-25T18:59:53.796Z,31.97
2018-01-25T19:02:20.564Z,31.00
2018-01-25T19:04:46.523Z,37.87
2018-01-25T19:07:12.592Z,38.57
2018-01-25T19:09:38.559Z,33.73
2018-01-25T19:12:05.360Z,32.50
2018-01-25T19:14:31.432Z,38.93
2018-01-25T19:16:58.156Z,35.80
2018-01-25T19:19:24.187Z,33.53
2018-01-25T19:21:50.190Z,34.87
2018-01-25T19:24:16.188Z,34.40
2018-01-25T19:26:42.164Z,32.93
2018-01-25T19:29:08.152Z,43.77
2018-01-25T19:31:34.132Z,39.20
2018-01-25T19:34:00.119Z,35.07
2018-01-25T19:36:26.109Z,38.77
2018-01-25T19:38:52.051Z,33.30
2018-01-25T19:41:17.992Z,33.97
2018-01-25T19:43:44.026Z,36.90
2018-01-25T19:46:09.995Z,37.10
2018-01-25T19:48:36.072Z,34.93
2018-01-25T19:51:02.875Z,31.47
2018-01-25T19:53:28.872Z,33.27
2018-01-25T19:55:54.900Z,34.77
2018-01-25T19:58:21.651Z,38.03
2018-01-25T20:00:48.428Z,36.03
2018-01-25T20:03:14.428Z,33.30
2018-01-25T20:05:40.448Z,36.87
2018-01-25T20:08:06.493Z,36.37
2018-01-25T20:10:32.573Z,37.83
2018-01-25T20:12:58.617Z,40.30
2018-01-25T20:15:24.667Z,36.67
2018-01-25T20:17:50.702Z,37.33
2018-01-25T20:20:16.688Z,38.50
2018-01-25T20:22:42.697Z,38.90
2018-01-25T20:25:08.698Z,40.43
2018-01-25T20:27:34.687Z,40.03
2018-01-25T20:30:00.684Z,37.40
2018-01-25T20:32:26.720Z,37.20
2018-01-25T20:34:52.664Z,35.73
2018-01-25T20:37:18.607Z,38.10
2018-01-25T20:39:44.563Z,42.50
2018-01-25T20:42:10.598Z,41.97
2018-01-25T20:44:36.545Z,41.30
2018-01-25T20:47:02.585Z,39.60
2018-01-25T20:49:28.616Z,43.47
2018-01-25T20:51:54.606Z,42.90
2018-01-25T20:54:20.583Z,45.50
2018-01-25T20:56:46.548Z,42.30
2018-01-25T20:59:13.278Z,39.50
2018-01-25T21:01:39.294Z,41.90
2018-01-25T21:04:06.046Z,46.63
2018-01-25T21:06:32.053Z,46.97
2018-01-25T21:08:58.075Z,43.77
2018-01-25T21:11:24.080Z,42.57
2018-01-25T21:13:50.148Z,48.80
2018-01-25T21:16:16.120Z,42.60
2018-01-25T21:18:42.159Z,45.50
2018-01-25T21:21:08.101Z,46.63
2018-01-25T21:23:34.148Z,46.97
2018-01-25T21:26:00.215Z,49.17
2018-01-25T21:28:26.211Z,48.20
2018-01-25T21:30:52.264Z,46.20
2018-01-25T21:33:18.246Z,49.07
2018-01-25T21:35:44.249Z,46.57
2018-01-25T21:38:10.253Z,48.60
2018-01-25T21:40:36.244Z,51.07
2018-01-25T21:43:03.004Z,50.50
2018-01-25T21:45:29.099Z,49.43
2018-01-25T21:47:55.152Z,46.07
2018-01-25T21:50:21.144Z,50.60
2018-01-25T21:52:47.158Z,47.47
2018-01-25T21:55:13.170Z,53.67
2018-01-25T21:57:40.079Z,49.97
2018-01-25T22:00:06.132Z,52.90
2018-01-25T22:02:32.142Z,47.47
2018-01-25T22:04:58.155Z,53.40
2018-01-25T22:07:24.892Z,57.57
2018-01-25T22:09:51.584Z,53.33
2018-01-25T22:12:17.584Z,51.80
2018-01-25T22:14:44.310Z,49.30
2018-01-25T22:17:10.308Z,43.93
2018-01-25T22:19:36.316Z,48.03
2018-01-25T22:22:03.115Z,46.87
2018-01-25T22:24:29.103Z,52.00
2018-01-25T22:26:55.785Z,54.93
2018-01-25T22:29:21.735Z,52.50
2018-01-25T22:31:47.741Z,50.80
2018-01-25T22:34:13.721Z,48.80
2018-01-25T22:36:39.674Z,60.20
2018-01-25T22:39:05.668Z,55.20
2018-01-25T22:41:31.734Z,53.10
2018-01-25T22:43:58.452Z,54.03
2018-01-25T22:46:24.476Z,52.17
2018-01-25T22:48:50.456Z,51.60
2018-01-25T22:51:16.451Z,48.10
2018-01-25T22:53:42.443Z,55.87
2018-01-25T22:56:08.412Z,49.40
2018-01-25T22:58:35.160Z,57.73
2018-01-25T23:01:01.992Z,49.60
2018-01-25T23:03:27.936Z,48.33
2018-01-25T23:05:53.920Z,51.47
2018-01-25T23:08:19.879Z,51.30
2018-01-25T23:10:45.862Z,50.20
2018-01-25T23:13:12.587Z,54.90
2018-01-25T23:15:38.594Z,51.60
2018-01-25T23:18:04.581Z,51.90
2018-01-25T23:20:31.390Z,53.07
2018-01-25T23:22:57.394Z,53.90
2018-01-25T23:25:23.328Z,58.97
2018-01-25T23:27:49.346Z,59.47
2018-01-25T23:30:16.036Z,54.80
2018-01-25T23:32:41.976Z,55.37
2018-01-25T23:35:07.951Z,52.80
2018-01-25T23:37:33.951Z,55.67
2018-01-25T23:39:59.900Z,61.63
2018-01-25T23:42:25.876Z,61.90
2018-01-25T23:44:52.556Z,58.50
2018-01-25T23:47:18.532Z,50.83
2018-01-25T23:49:44.475Z,55.40
2018-01-25T23:52:10.451Z,54.37
2018-01-25T23:54:36.436Z,51.53
2018-01-25T23:57:02.392Z,53.83
2018-01-25T23:59:28.387Z,53.73
